Time,TemperatureF,DewpointF,PressureIn,WindDirection,WindDirectionDegrees,WindSpeedMPH,WindSpeedGustMPH,Humidity,HourlyPrecipIn,Conditions,Clouds,dailyrainin,SoftwareType,DateUTC
2013-08-12 00:06:00,63.7,59.0,29.91,WNW,297,0.0,0.0,83,0.00,,,0.00,weatherlink.com 1.10,2013-08-12 07:06:00,
2013-08-12 00:21:00,62.4,57.0,29.90,WNW,297,0.0,0.0,83,0.00,,,0.00,weatherlink.com 1.10,2013-08-12 07:21:00,
2013-08-12 00:36:00,62.1,57.0,29.90,WNW,297,0.0,0.0,84,0.00,,,0.00,weatherlink.com 1.10,2013-08-12 07:36:00,
2013-08-12 00:51:00,61.7,57.0,29.90,WNW,297,0.0,0.0,85,0.00,,,0.00,weatherlink.com 1.10,2013-08-12 07:51:00,
2013-08-12 01:06:00,61.8,58.0,29.90,WNW,297,0.0,0.0,86,0.00,,,0.00,weatherlink.com 1.10,2013-08-12 08:06:00,
2013-08-12 01:21:00,62.2,58.0,29.89,WNW,297,0.0,0.0,87,0.00,,,0.00,weatherlink.com 1.10,2013-08-12 08:21:00,
2013-08-12 01:36:00,62.1,58.0,29.89,WNW,297,0.0,0.0,87,0.00,,,0.00,weatherlink.com 1.10,2013-08-12 08:36:00,
2013-08-12 01:51:00,61.8,58.0,29.89,WNW,297,0.0,0.0,86,0.00,,,0.00,weatherlink.com 1.10,2013-08-12 08:51:00,
2013-08-12 02:07:00,61.4,57.0,29.89,WNW,297,0.0,0.0,86,0.00,,,0.00,weatherlink.com 1.10,2013-08-12 09:07:00,
2013-08-12 02:22:00,61.6,58.0,29.89,WNW,297,0.0,0.0,87,0.00,,,0.00,weatherlink.com 1.10,2013-08-12 09:22:00,
2013-08-12 02:37:00,61.7,58.0,29.89,WNW,297,0.0,0.0,87,0.00,,,0.00,weatherlink.com 1.10,2013-08-12 09:37:00,
2013-08-12 02:52:00,61.6,58.0,29.89,WNW,297,0.0,0.0,87,0.00,,,0.00,weatherlink.com 1.10,2013-08-12 09:52:00,
2013-08-12 03:07:00,61.7,58.0,29.89,WNW,297,0.0,0.0,87,0.00,,,0.00,weatherlink.com 1.10,2013-08-12 10:07:00,
2013-08-12 03:22:00,62.5,59.0,29.89,WNW,297,0.0,0.0,88,0.00,,,0.00,weatherlink.com 1.10,2013-08-12 10:22:00,
2013-08-12 03:37:00,63.0,59.0,29.88,WNW,297,0.0,0.0,88,0.00,,,0.00,weatherlink.com 1.10,2013-08-12 10:37:00,
2013-08-12 03:52:00,63.5,60.0,29.89,WNW,297,0.0,0.0,87,0.00,,,0.00,weatherlink.com 1.10,2013-08-12 10:52:00,
2013-08-12 04:07:00,64.1,60.0,29.89,WSW,244,0.0,2.0,86,0.00,,,0.00,weatherlink.com 1.10,2013-08-12 11:07:00,
2013-08-12 04:22:00,64.2,60.0,29.89,SW,231,0.0,4.0,85,0.00,,,0.00,weatherlink.com 1.10,2013-08-12 11:22:00,
2013-08-12 04:37:00,64.4,60.0,29.89,SW,231,1.0,2.0,85,0.00,,,0.00,weatherlink.com 1.10,2013-08-12 11:37:00,
2013-08-12 04:52:00,64.3,59.0,29.89,SSW,192,0.0,3.0,84,0.00,,,0.00,weatherlink.com 1.10,2013-08-12 11:52:00,
2013-08-12 05:07:00,64.3,59.0,29.89,SW,226,0.0,3.0,83,0.00,,,0.00,weatherlink.com 1.10,2013-08-12 12:07:00,
2013-08-12 05:22:00,64.3,59.0,29.90,SW,234,1.0,3.0,83,0.00,,,0.00,weatherlink.com 1.10,2013-08-12 12:22:00,
2013-08-12 05:37:00,64.4,59.0,29.90,SW,233,1.0,3.0,82,0.00,,,0.00,weatherlink.com 1.10,2013-08-12 12:37:00,
2013-08-12 05:52:00,64.4,59.0,29.90,SSW,200,0.0,3.0,82,0.00,,,0.00,weatherlink.com 1.10,2013-08-12 12:52:00,
2013-08-12 06:07:00,64.3,59.0,29.91,SW,233,0.0,1.0,82,0.00,,,0.00,weatherlink.com 1.10,2013-08-12 13:07:00,
2013-08-12 06:22:00,64.4,59.0,29.91,WSW,238,0.0,2.0,82,0.00,,,0.00,weatherlink.com 1.10,2013-08-12 13:22:00,
2013-08-12 06:37:00,64.5,59.0,29.91,WSW,253,2.0,3.0,82,0.00,,,0.00,weatherlink.com 1.10,2013-08-12 13:37:00,
2013-08-12 06:52:00,64.4,59.0,29.91,WSW,245,0.0,3.0,82,0.00,,,0.00,weatherlink.com 1.10,2013-08-12 13:52:00,
2013-08-12 07:07:00,64.5,59.0,29.92,WSW,258,1.0,1.0,82,0.00,,,0.00,weatherlink.com 1.10,2013-08-12 14:07:00,
2013-08-12 07:22:00,64.5,59.0,29.92,West,269,0.0,1.0,81,0.00,,,0.00,weatherlink.com 1.10,2013-08-12 14:22:00,
2013-08-12 07:37:00,64.7,59.0,29.92,West,269,0.0,1.0,81,0.00,,,0.00,weatherlink.com 1.10,2013-08-12 14:37:00,
2013-08-12 07:52:00,65.1,59.0,29.92,WSW,257,1.0,2.0,80,0.00,,,0.00,weatherlink.com 1.10,2013-08-12 14:52:00,
2013-08-12 08:07:00,65.3,59.0,29.93,West,266,0.0,1.0,80,0.00,,,0.00,weatherlink.com 1.10,2013-08-12 15:07:00,
2013-08-12 08:22:00,65.7,59.0,29.93,WSW,242,0.0,1.0,79,0.00,,,0.00,weatherlink.com 1.10,2013-08-12 15:22:00,
2013-08-12 08:37:00,66.2,59.0,29.93,SSE,163,2.0,3.0,78,0.00,,,0.00,weatherlink.com 1.10,2013-08-12 15:37:00,
2013-08-12 08:52:00,66.8,59.0,29.93,ESE,108,1.0,2.0,77,0.00,,,0.00,weatherlink.com 1.10,2013-08-12 15:52:00,
2013-08-12 09:07:00,67.0,59.0,29.94,ENE,67,1.0,5.0,76,0.00,,,0.00,weatherlink.com 1.10,2013-08-12 16:07:00,
2013-08-12 09:22:00,67.5,59.0,29.94,South,181,2.0,4.0,75,0.00,,,0.00,weatherlink.com 1.10,2013-08-12 16:22:00,
2013-08-12 09:37:00,68.1,60.0,29.94,West,272,1.0,2.0,74,0.00,,,0.00,weatherlink.com 1.10,2013-08-12 16:37:00,
2013-08-12 09:52:00,69.0,60.0,29.94,SW,221,1.0,3.0,73,0.00,,,0.00,weatherlink.com 1.10,2013-08-12 16:52:00,
2013-08-12 10:07:00,70.4,61.0,29.94,WSW,237,0.0,5.0,71,0.00,,,0.00,weatherlink.com 1.10,2013-08-12 17:07:00,
2013-08-12 10:22:00,71.9,60.0,29.94,SE,129,5.0,6.0,66,0.00,,,0.00,weatherlink.com 1.10,2013-08-12 17:22:00,
2013-08-12 10:37:00,72.3,61.0,29.94,South,169,5.0,7.0,67,0.00,,,0.00,weatherlink.com 1.10,2013-08-12 17:37:00,
2013-08-12 10:52:00,72.8,61.0,29.94,SW,223,2.0,6.0,66,0.00,,,0.00,weatherlink.com 1.10,2013-08-12 17:52:00,
2013-08-12 11:07:00,73.1,61.0,29.93,WNW,302,3.0,6.0,65,0.00,,,0.00,weatherlink.com 1.10,2013-08-12 18:07:00,
2013-08-12 11:22:00,73.5,61.0,29.93,WSW,241,1.0,5.0,66,0.00,,,0.00,weatherlink.com 1.10,2013-08-12 18:22:00,
2013-08-12 11:37:00,74.1,61.0,29.93,SE,129,5.0,6.0,63,0.00,,,0.00,weatherlink.com 1.10,2013-08-12 18:37:00,
2013-08-12 11:52:00,74.1,61.0,29.93,WSW,255,2.0,6.0,64,0.00,,,0.00,weatherlink.com 1.10,2013-08-12 18:52:00,
2013-08-12 12:07:00,74.5,61.0,29.92,SW,224,2.0,6.0,63,0.00,,,0.00,weatherlink.com 1.10,2013-08-12 19:07:00,
2013-08-12 12:22:00,75.9,61.0,29.92,West,262,4.0,8.0,61,0.00,,,0.00,weatherlink.com 1.10,2013-08-12 19:22:00,
2013-08-12 12:37:00,75.9,62.0,29.92,SW,217,2.0,7.0,62,0.00,,,0.00,weatherlink.com 1.10,2013-08-12 19:37:00,
2013-08-12 12:53:00,76.3,61.0,29.91,WSW,238,2.0,7.0,60,0.00,,,0.00,weatherlink.com 1.10,2013-08-12 19:53:00,
2013-08-12 13:08:00,76.8,61.0,29.91,SE,143,6.0,8.0,59,0.00,,,0.00,weatherlink.com 1.10,2013-08-12 20:08:00,
2013-08-12 13:23:00,76.2,61.0,29.90,WSW,255,8.0,9.0,60,0.00,,,0.00,weatherlink.com 1.10,2013-08-12 20:23:00,
2013-08-12 13:38:00,76.4,61.0,29.90,SSW,210,4.0,10.0,60,0.00,,,0.00,weatherlink.com 1.10,2013-08-12 20:38:00,
2013-08-12 13:53:00,76.3,61.0,29.89,SSE,155,4.0,10.0,60,0.00,,,0.00,weatherlink.com 1.10,2013-08-12 20:53:00,
2013-08-12 14:08:00,75.8,61.0,29.89,East,93,5.0,10.0,61,0.00,,,0.00,weatherlink.com 1.10,2013-08-12 21:08:00,
2013-08-12 14:23:00,76.8,62.0,29.89,WSW,238,9.0,9.0,60,0.00,,,0.00,weatherlink.com 1.10,2013-08-12 21:23:00,
2013-08-12 14:38:00,75.0,61.0,29.89,WSW,245,4.0,10.0,63,0.00,,,0.00,weatherlink.com 1.10,2013-08-12 21:38:00,
2013-08-12 14:53:00,75.4,61.0,29.89,SSW,206,4.0,9.0,62,0.00,,,0.00,weatherlink.com 1.10,2013-08-12 21:53:00,
2013-08-12 15:08:00,75.3,61.0,29.88,SSW,210,7.0,10.0,62,0.00,,,0.00,weatherlink.com 1.10,2013-08-12 22:08:00,
2013-08-12 15:23:00,75.6,62.0,29.88,SE,135,2.0,8.0,62,0.00,,,0.00,weatherlink.com 1.10,2013-08-12 22:23:00,
2013-08-12 15:38:00,76.1,62.0,29.87,SSW,208,2.0,7.0,61,0.00,,,0.00,weatherlink.com 1.10,2013-08-12 22:38:00,
2013-08-12 15:53:00,75.9,62.0,29.87,SW,229,2.0,9.0,62,0.00,,,0.00,weatherlink.com 1.10,2013-08-12 22:53:00,
2013-08-12 16:08:00,76.4,62.0,29.86,SE,143,2.0,7.0,61,0.00,,,0.00,weatherlink.com 1.10,2013-08-12 23:08:00,
2013-08-12 16:23:00,77.1,63.0,29.86,SE,134,4.0,7.0,61,0.00,,,0.00,weatherlink.com 1.10,2013-08-12 23:23:00,
2013-08-12 16:38:00,78.6,63.0,29.85,SSE,163,0.0,5.0,59,0.00,,,0.00,weatherlink.com 1.10,2013-08-12 23:38:00,
2013-08-12 16:53:00,80.0,63.0,29.85,West,281,2.0,8.0,56,0.00,,,0.00,weatherlink.com 1.10,2013-08-12 23:53:00,
2013-08-12 17:08:00,79.7,62.0,29.85,NNW,328,5.0,13.0,55,0.00,,,0.00,weatherlink.com 1.10,2013-08-13 00:08:00,
2013-08-12 17:23:00,78.3,62.0,29.85,West,266,5.0,7.0,57,0.00,,,0.00,weatherlink.com 1.10,2013-08-13 00:23:00,
2013-08-12 17:38:00,78.1,62.0,29.85,WNW,289,1.0,6.0,58,0.00,,,0.00,weatherlink.com 1.10,2013-08-13 00:38:00,
2013-08-12 17:53:00,76.9,61.0,29.86,West,264,6.0,8.0,59,0.00,,,0.00,weatherlink.com 1.10,2013-08-13 00:53:00,
2013-08-12 18:08:00,76.9,62.0,29.86,West,281,4.0,7.0,60,0.00,,,0.00,weatherlink.com 1.10,2013-08-13 01:08:00,
2013-08-12 18:23:00,76.3,62.0,29.85,WSW,258,4.0,7.0,61,0.00,,,0.00,weatherlink.com 1.10,2013-08-13 01:23:00,
2013-08-12 18:38:00,76.1,62.0,29.86,WSW,252,2.0,7.0,62,0.00,,,0.00,weatherlink.com 1.10,2013-08-13 01:38:00,
2013-08-12 18:53:00,74.8,61.0,29.86,NW,305,4.0,7.0,63,0.00,,,0.00,weatherlink.com 1.10,2013-08-13 01:53:00,
2013-08-12 19:08:00,73.6,62.0,29.86,WNW,295,3.0,7.0,66,0.00,,,0.00,weatherlink.com 1.10,2013-08-13 02:08:00,
2013-08-12 19:23:00,71.7,61.0,29.86,SW,235,4.0,7.0,70,0.00,,,0.00,weatherlink.com 1.10,2013-08-13 02:23:00,
2013-08-12 19:38:00,70.2,61.0,29.87,NNW,332,4.0,7.0,73,0.00,,,0.00,weatherlink.com 1.10,2013-08-13 02:38:00,
2013-08-12 19:53:00,69.1,61.0,29.87,WNW,292,2.0,6.0,75,0.00,,,0.00,weatherlink.com 1.10,2013-08-13 02:53:00,
2013-08-12 20:08:00,67.8,60.0,29.88,NW,305,2.0,7.0,77,0.00,,,0.00,weatherlink.com 1.10,2013-08-13 03:08:00,
2013-08-12 20:23:00,67.1,60.0,29.89,NNW,343,3.0,7.0,79,0.00,,,0.00,weatherlink.com 1.10,2013-08-13 03:23:00,
2013-08-12 20:38:00,66.5,60.0,29.89,WNW,284,3.0,6.0,80,0.00,,,0.00,weatherlink.com 1.10,2013-08-13 03:38:00,
2013-08-12 20:53:00,66.0,60.0,29.89,NNW,332,2.0,6.0,81,0.00,,,0.00,weatherlink.com 1.10,2013-08-13 03:53:00,
2013-08-12 21:08:00,65.8,60.0,29.90,West,259,0.0,4.0,81,0.00,,,0.00,weatherlink.com 1.10,2013-08-13 04:08:00,
2013-08-12 21:23:00,65.6,60.0,29.90,NW,314,1.0,3.0,81,0.00,,,0.00,weatherlink.com 1.10,2013-08-13 04:23:00,
2013-08-12 21:38:00,65.4,60.0,29.91,WNW,295,3.0,4.0,82,0.00,,,0.00,weatherlink.com 1.10,2013-08-13 04:38:00,
2013-08-12 21:53:00,65.3,60.0,29.91,WNW,288,1.0,2.0,82,0.00,,,0.00,weatherlink.com 1.10,2013-08-13 04:53:00,
2013-08-12 22:08:00,65.3,60.0,29.91,WNW,295,0.0,2.0,83,0.00,,,0.00,weatherlink.com 1.10,2013-08-13 05:08:00,
2013-08-12 22:23:00,65.2,60.0,29.91,WNW,291,2.0,3.0,83,0.00,,,0.00,weatherlink.com 1.10,2013-08-13 05:23:00,
2013-08-12 22:38:00,65.1,60.0,29.91,West,266,0.0,2.0,83,0.00,,,0.00,weatherlink.com 1.10,2013-08-13 05:38:00,
2013-08-12 22:53:00,64.9,60.0,29.91,West,269,0.0,1.0,83,0.00,,,0.00,weatherlink.com 1.10,2013-08-13 05:53:00,
2013-08-12 23:08:00,64.6,59.0,29.91,West,269,0.0,1.0,83,0.00,,,0.00,weatherlink.com 1.10,2013-08-13 06:08:00,
2013-08-12 23:23:00,64.5,60.0,29.91,West,270,0.0,1.0,84,0.00,,,0.00,weatherlink.com 1.10,2013-08-13 06:23:00,
2013-08-12 23:38:00,64.3,59.0,29.91,WNW,295,0.0,2.0,84,0.00,,,0.00,weatherlink.com 1.10,2013-08-13 06:38:00,
2013-08-12 23:53:00,64.1,59.0,29.91,WNW,296,0.0,1.0,84,0.00,,,0.00,weatherlink.com 1.10,2013-08-13 06:53:00,